sensor_id;sensor_type;location;lat;lon;timestamp;pressure;altitude;pressure_sealevel;temperature;humidity
64628;BME280;59036;50.960;0.314;2023-03-01T00:00:27;101419.71;;;-0.69;100.00
64628;BME280;59036;50.960;0.314;2023-03-01T00:02:54;101424.94;;;-0.16;100.00
64628;BME280;59036;50.960;0.314;2023-03-01T00:05:21;101422.91;;;-0.34;100.00
64628;BME280;59036;50.960;0.314;2023-03-01T00:07:49;101419.80;;;-0.45;100.00
64628;BME280;59036;50.960;0.314;2023-03-01T00:10:19;101416.63;;;-0.50;100.00
64628;BME280;59036;50.960;0.314;2023-03-01T00:12:46;101416.06;;;0.09;100.00
64628;BME280;59036;50.960;0.314;2023-03-01T00:15:14;101416.68;;;0.26;100.00
64628;BME280;59036;50.960;0.314;2023-03-01T00:17:41;101414.89;;;0.01;100.00
64628;BME280;59036;50.960;0.314;2023-03-01T00:20:10;101411.69;;;-0.33;100.00
64628;BME280;59036;50.960;0.314;2023-03-01T00:22:37;101410.55;;;-0.02;100.00
64628;BME280;59036;50.960;0.314;2023-03-01T00:25:05;101406.36;;;0.61;100.00
64628;BME280;59036;50.960;0.314;2023-03-01T00:27:32;101408.46;;;0.12;100.00
64628;BME280;59036;50.960;0.314;2023-03-01T00:29:59;101408.90;;;0.66;100.00
64628;BME280;59036;50.960;0.314;2023-03-01T00:32:26;101411.39;;;0.35;100.00
64628;BME280;59036;50.960;0.314;2023-03-01T00:34:54;101412.22;;;0.70;100.00
64628;BME280;59036;50.960;0.314;2023-03-01T00:37:21;101417.55;;;0.15;100.00
64628;BME280;59036;50.960;0.314;2023-03-01T00:39:49;101414.34;;;0.05;100.00
64628;BME280;59036;50.960;0.314;2023-03-01T00:42:17;101413.82;;;0.25;100.00
64628;BME280;59036;50.960;0.314;2023-03-01T00:44:44;101412.09;;;-0.30;100.00
64628;BME280;59036;50.960;0.314;2023-03-01T00:47:12;101409.74;;;0.04;100.00
64628;BME280;59036;50.960;0.314;2023-03-01T00:49:39;101408.61;;;-0.16;100.00
64628;BME280;59036;50.960;0.314;2023-03-01T00:52:06;101405.82;;;0.37;100.00
64628;BME280;59036;50.960;0.314;2023-03-01T00:54:33;101406.47;;;-0.19;100.00
64628;BME280;59036;50.960;0.314;2023-03-01T00:57:07;101405.19;;;-0.07;100.00
64628;BME280;59036;50.960;0.314;2023-03-01T00:59:34;101405.77;;;-0.04;100.00
64628;BME280;59036;50.960;0.314;2023-03-01T01:02:01;101408.26;;;-0.41;100.00
64628;BME280;59036;50.960;0.314;2023-03-01T01:04:28;101404.92;;;-0.28;100.00
64628;BME280;59036;50.960;0.314;2023-03-01T01:06:55;101407.82;;;-0.91;100.00
64628;BME280;59036;50.960;0.314;2023-03-01T01:09:22;101409.17;;;-0.25;100.00
64628;BME280;59036;50.960;0.314;2023-03-01T01:11:51;101415.97;;;-0.40;100.00
64628;BME280;59036;50.960;0.314;2023-03-01T01:14:19;101413.33;;;-0.52;100.00
64628;BME280;59036;50.960;0.314;2023-03-01T01:16:47;101410.91;;;-0.35;100.00
64628;BME280;59036;50.960;0.314;2023-03-01T01:19:14;101410.79;;;-0.58;100.00
64628;BME280;59036;50.960;0.314;2023-03-01T01:21:42;101408.97;;;-0.04;100.00
64628;BME280;59036;50.960;0.314;2023-03-01T01:24:09;101406.49;;;0.44;100.00
64628;BME280;59036;50.960;0.314;2023-03-01T01:26:37;101412.02;;;0.03;100.00
64628;BME280;59036;50.960;0.314;2023-03-01T01:29:06;101412.19;;;0.18;100.00
64628;BME280;59036;50.960;0.314;2023-03-01T01:31:34;101413.02;;;-0.20;100.00
64628;BME280;59036;50.960;0.314;2023-03-01T01:34:05;101408.39;;;1.04;100.00
64628;BME280;59036;50.960;0.314;2023-03-01T01:36:34;101409.22;;;-0.03;100.00
64628;BME280;59036;50.960;0.314;2023-03-01T01:39:02;101405.51;;;0.13;100.00
64628;BME280;59036;50.960;0.314;2023-03-01T01:41:29;101407.15;;;0.02;100.00
64628;BME280;59036;50.960;0.314;2023-03-01T01:44:17;101403.81;;;0.09;100.00
64628;BME280;59036;50.960;0.314;2023-03-01T01:46:49;101395.82;;;0.32;100.00
64628;BME280;59036;50.960;0.314;2023-03-01T01:49:23;101397.67;;;0.38;100.00
64628;BME280;59036;50.960;0.314;2023-03-01T01:51:58;101386.90;;;0.60;100.00
64628;BME280;59036;50.960;0.314;2023-03-01T01:54:33;101382.39;;;0.65;100.00
64628;BME280;59036;50.960;0.314;2023-03-01T01:57:07;101376.51;;;-0.05;100.00
64628;BME280;59036;50.960;0.314;2023-03-01T01:59:37;101369.65;;;0.16;100.00
64628;BME280;59036;50.960;0.314;2023-03-01T02:02:05;101363.60;;;0.66;100.00
64628;BME280;59036;50.960;0.314;2023-03-01T02:04:33;101359.22;;;0.40;100.00
64628;BME280;59036;50.960;0.314;2023-03-01T02:07:04;101362.31;;;-0.28;100.00
64628;BME280;59036;50.960;0.314;2023-03-01T02:09:34;101351.14;;;0.32;100.00
64628;BME280;59036;50.960;0.314;2023-03-01T02:12:03;101346.82;;;1.06;100.00
64628;BME280;59036;50.960;0.314;2023-03-01T02:14:30;101349.53;;;0.15;100.00
64628;BME280;59036;50.960;0.314;2023-03-01T02:16:57;101344.40;;;1.64;100.00
64628;BME280;59036;50.960;0.314;2023-03-01T02:19:35;101346.11;;;1.04;100.00
64628;BME280;59036;50.960;0.314;2023-03-01T02:22:15;101344.16;;;-0.08;100.00
64628;BME280;59036;50.960;0.314;2023-03-01T02:24:52;101338.17;;;0.52;100.00
64628;BME280;59036;50.960;0.314;2023-03-01T02:27:27;101334.11;;;0.84;100.00
64628;BME280;59036;50.960;0.314;2023-03-01T02:29:56;101331.91;;;0.15;100.00
64628;BME280;59036;50.960;0.314;2023-03-01T02:32:23;101330.64;;;0.64;100.00
64628;BME280;59036;50.960;0.314;2023-03-01T02:34:56;101330.64;;;0.34;100.00
64628;BME280;59036;50.960;0.314;2023-03-01T02:37:26;101328.16;;;0.87;100.00
64628;BME280;59036;50.960;0.314;2023-03-01T02:39:58;101328.62;;;0.46;100.00
64628;BME280;59036;50.960;0.314;2023-03-01T02:42:30;101327.17;;;0.41;100.00
64628;BME280;59036;50.960;0.314;2023-03-01T02:44:58;101330.09;;;0.26;100.00
64628;BME280;59036;50.960;0.314;2023-03-01T02:47:25;101330.98;;;-0.03;100.00
64628;BME280;59036;50.960;0.314;2023-03-01T02:49:51;101324.71;;;0.38;100.00
64628;BME280;59036;50.960;0.314;2023-03-01T02:52:30;101318.42;;;0.85;100.00
64628;BME280;59036;50.960;0.314;2023-03-01T02:55:03;101317.46;;;0.95;100.00
64628;BME280;59036;50.960;0.314;2023-03-01T02:57:35;101313.92;;;0.64;100.00
64628;BME280;59036;50.960;0.314;2023-03-01T03:00:06;101312.20;;;1.03;100.00
64628;BME280;59036;50.960;0.314;2023-03-01T03:02:35;101312.71;;;0.59;100.00
64628;BME280;59036;50.960;0.314;2023-03-01T03:05:04;101313.35;;;0.50;100.00
64628;BME280;59036;50.960;0.314;2023-03-01T03:07:33;101308.00;;;0.95;100.00
64628;BME280;59036;50.960;0.314;2023-03-01T03:10:01;101307.75;;;0.36;100.00
64628;BME280;59036;50.960;0.314;2023-03-01T03:12:43;101301.18;;;0.74;100.00
64628;BME280;59036;50.960;0.314;2023-03-01T03:15:11;101298.44;;;0.98;100.00
64628;BME280;59036;50.960;0.314;2023-03-01T03:17:40;101294.49;;;0.66;100.00
64628;BME280;59036;50.960;0.314;2023-03-01T03:20:11;101293.23;;;0.20;100.00
64628;BME280;59036;50.960;0.314;2023-03-01T03:22:39;101295.51;;;0.09;100.00
64628;BME280;59036;50.960;0.314;2023-03-01T03:25:07;101292.03;;;0.39;100.00
64628;BME280;59036;50.960;0.314;2023-03-01T03:27:35;101290.32;;;0.52;100.00
64628;BME280;59036;50.960;0.314;2023-03-01T03:30:03;101292.42;;;0.08;100.00
64628;BME280;59036;50.960;0.314;2023-03-01T03:32:30;101291.94;;;0.92;100.00
64628;BME280;59036;50.960;0.314;2023-03-01T03:34:57;101294.75;;;1.17;100.00
64628;BME280;59036;50.960;0.314;2023-03-01T03:37:24;101289.25;;;1.58;100.00
64628;BME280;59036;50.960;0.314;2023-03-01T03:39:51;101286.99;;;0.48;100.00
64628;BME280;59036;50.960;0.314;2023-03-01T03:42:18;101281.99;;;1.44;100.00
64628;BME280;59036;50.960;0.314;2023-03-01T03:44:45;101276.79;;;1.45;100.00
64628;BME280;59036;50.960;0.314;2023-03-01T03:47:12;101277.11;;;1.07;100.00
64628;BME280;59036;50.960;0.314;2023-03-01T03:49:40;101275.57;;;1.28;100.00
64628;BME280;59036;50.960;0.314;2023-03-01T03:52:07;101274.00;;;1.19;100.00
64628;BME280;59036;50.960;0.314;2023-03-01T03:54:35;101267.74;;;1.74;100.00
64628;BME280;59036;50.960;0.314;2023-03-01T03:57:02;101263.55;;;1.88;100.00
64628;BME280;59036;50.960;0.314;2023-03-01T03:59:29;101267.16;;;0.95;100.00
64628;BME280;59036;50.960;0.314;2023-03-01T04:01:57;101262.61;;;0.27;100.00
64628;BME280;59036;50.960;0.314;2023-03-01T04:04:24;101261.76;;;0.27;100.00
64628;BME280;59036;50.960;0.314;2023-03-01T04:06:51;101256.36;;;1.22;100.00
64628;BME280;59036;50.960;0.314;2023-03-01T04:09:18;101257.11;;;1.30;100.00
64628;BME280;59036;50.960;0.314;2023-03-01T04:11:45;101257.36;;;1.13;100.00
64628;BME280;59036;50.960;0.314;2023-03-01T04:14:13;101253.39;;;1.08;100.00
64628;BME280;59036;50.960;0.314;2023-03-01T04:16:40;101254.96;;;0.08;100.00
64628;BME280;59036;50.960;0.314;2023-03-01T04:19:07;101248.53;;;2.39;100.00
64628;BME280;59036;50.960;0.314;2023-03-01T04:21:34;101245.57;;;1.52;100.00
64628;BME280;59036;50.960;0.314;2023-03-01T04:24:00;101239.86;;;1.88;100.00
64628;BME280;59036;50.960;0.314;2023-03-01T04:26:28;101239.45;;;0.67;100.00
64628;BME280;59036;50.960;0.314;2023-03-01T04:28:55;101238.87;;;0.86;100.00
64628;BME280;59036;50.960;0.314;2023-03-01T04:31:22;101233.95;;;1.42;100.00
64628;BME280;59036;50.960;0.314;2023-03-01T04:33:50;101238.51;;;0.82;100.00
64628;BME280;59036;50.960;0.314;2023-03-01T04:36:20;101235.78;;;0.73;100.00
64628;BME280;59036;50.960;0.314;2023-03-01T04:38:47;101231.63;;;1.28;100.00
64628;BME280;59036;50.960;0.314;2023-03-01T04:41:17;101226.42;;;1.43;100.00
64628;BME280;59036;50.960;0.314;2023-03-01T04:43:45;101223.11;;;0.92;100.00
64628;BME280;59036;50.960;0.314;2023-03-01T04:46:14;101220.67;;;1.85;100.00
64628;BME280;59036;50.960;0.314;2023-03-01T04:48:43;101219.51;;;1.27;100.00
64628;BME280;59036;50.960;0.314;2023-03-01T04:51:11;101209.83;;;1.61;100.00
64628;BME280;59036;50.960;0.314;2023-03-01T04:53:38;101207.02;;;1.44;100.00
64628;BME280;59036;50.960;0.314;2023-03-01T04:56:06;101203.77;;;1.61;100.00
64628;BME280;59036;50.960;0.314;2023-03-01T04:58:34;101204.87;;;1.15;100.00
64628;BME280;59036;50.960;0.314;2023-03-01T05:01:01;101203.02;;;0.77;100.00
64628;BME280;59036;50.960;0.314;2023-03-01T05:03:34;101201.51;;;0.63;100.00
64628;BME280;59036;50.960;0.314;2023-03-01T05:06:01;101196.46;;;1.04;100.00
64628;BME280;59036;50.960;0.314;2023-03-01T05:08:29;101197.59;;;0.83;100.00
64628;BME280;59036;50.960;0.314;2023-03-01T05:10:56;101201.42;;;0.36;100.00
64628;BME280;59036;50.960;0.314;2023-03-01T05:13:23;101206.26;;;-0.29;100.00
64628;BME280;59036;50.960;0.314;2023-03-01T05:15:54;101207.95;;;0.27;100.00
64628;BME280;59036;50.960;0.314;2023-03-01T05:18:22;101206.33;;;0.34;100.00
64628;BME280;59036;50.960;0.314;2023-03-01T05:20:49;101205.92;;;0.24;100.00
64628;BME280;59036;50.960;0.314;2023-03-01T05:23:17;101208.35;;;-0.42;100.00
64628;BME280;59036;50.960;0.314;2023-03-01T05:25:44;101210.52;;;-0.04;100.00
64628;BME280;59036;50.960;0.314;2023-03-01T05:28:12;101204.95;;;-0.54;100.00
64628;BME280;59036;50.960;0.314;2023-03-01T05:30:39;101201.90;;;0.37;100.00
64628;BME280;59036;50.960;0.314;2023-03-01T05:33:07;101208.08;;;0.21;100.00
64628;BME280;59036;50.960;0.314;2023-03-01T05:35:34;101207.18;;;0.33;100.00
64628;BME280;59036;50.960;0.314;2023-03-01T05:38:01;101209.04;;;-0.60;100.00
64628;BME280;59036;50.960;0.314;2023-03-01T05:40:29;101203.94;;;0.42;100.00
64628;BME280;59036;50.960;0.314;2023-03-01T05:42:57;101206.01;;;-0.08;100.00
64628;BME280;59036;50.960;0.314;2023-03-01T05:45:25;101209.66;;;-0.36;100.00
64628;BME280;59036;50.960;0.314;2023-03-01T05:47:54;101205.09;;;-0.07;100.00
64628;BME280;59036;50.960;0.314;2023-03-01T05:50:23;101209.33;;;-0.65;100.00
64628;BME280;59036;50.960;0.314;2023-03-01T05:52:54;101208.29;;;0.15;100.00
64628;BME280;59036;50.960;0.314;2023-03-01T05:55:23;101209.65;;;-0.25;100.00
64628;BME280;59036;50.960;0.314;2023-03-01T05:57:51;101208.92;;;0.10;100.00
64628;BME280;59036;50.960;0.314;2023-03-01T06:00:20;101207.42;;;0.33;100.00
64628;BME280;59036;50.960;0.314;2023-03-01T06:02:47;101205.96;;;0.58;100.00
64628;BME280;59036;50.960;0.314;2023-03-01T06:05:15;101204.66;;;0.12;100.00
64628;BME280;59036;50.960;0.314;2023-03-01T06:07:42;101209.31;;;0.26;100.00
64628;BME280;59036;50.960;0.314;2023-03-01T06:10:11;101209.34;;;1.03;100.00
64628;BME280;59036;50.960;0.314;2023-03-01T06:12:40;101214.62;;;0.42;100.00
64628;BME280;59036;50.960;0.314;2023-03-01T06:15:10;101216.58;;;0.60;100.00
64628;BME280;59036;50.960;0.314;2023-03-01T06:17:38;101216.10;;;0.09;100.00
64628;BME280;59036;50.960;0.314;2023-03-01T06:20:10;101223.97;;;0.78;100.00
64628;BME280;59036;50.960;0.314;2023-03-01T06:22:38;101220.86;;;0.59;100.00
64628;BME280;59036;50.960;0.314;2023-03-01T06:25:06;101220.33;;;0.23;100.00
64628;BME280;59036;50.960;0.314;2023-03-01T06:27:34;101218.93;;;0.58;100.00
64628;BME280;59036;50.960;0.314;2023-03-01T06:30:04;101216.79;;;0.59;100.00
64628;BME280;59036;50.960;0.314;2023-03-01T06:32:31;101213.29;;;0.63;100.00
64628;BME280;59036;50.960;0.314;2023-03-01T06:34:58;101213.01;;;0.06;100.00
64628;BME280;59036;50.960;0.314;2023-03-01T06:37:26;101207.52;;;1.26;100.00
64628;BME280;59036;50.960;0.314;2023-03-01T06:39:53;101205.54;;;-0.16;100.00
64628;BME280;59036;50.960;0.314;2023-03-01T06:42:20;101206.37;;;0.94;100.00
64628;BME280;59036;50.960;0.314;2023-03-01T06:44:47;101206.67;;;0.17;100.00
64628;BME280;59036;50.960;0.314;2023-03-01T06:47:14;101202.88;;;0.62;100.00
64628;BME280;59036;50.960;0.314;2023-03-01T06:49:42;101205.20;;;-0.68;100.00
64628;BME280;59036;50.960;0.314;2023-03-01T06:52:09;101207.14;;;-0.24;100.00
64628;BME280;59036;50.960;0.314;2023-03-01T06:54:35;101205.05;;;0.38;100.00
64628;BME280;59036;50.960;0.314;2023-03-01T06:57:03;101215.85;;;0.26;100.00
64628;BME280;59036;50.960;0.314;2023-03-01T06:59:30;101210.40;;;0.35;100.00
64628;BME280;59036;50.960;0.314;2023-03-01T07:01:57;101212.57;;;0.23;100.00
64628;BME280;59036;50.960;0.314;2023-03-01T07:04:25;101209.19;;;0.57;100.00
64628;BME280;59036;50.960;0.314;2023-03-01T07:06:52;101209.57;;;-0.22;100.00
64628;BME280;59036;50.960;0.314;2023-03-01T07:09:19;101208.42;;;0.22;100.00
64628;BME280;59036;50.960;0.314;2023-03-01T07:11:46;101203.66;;;0.46;100.00
64628;BME280;59036;50.960;0.314;2023-03-01T07:14:14;101205.92;;;-0.15;100.00
64628;BME280;59036;50.960;0.314;2023-03-01T07:16:41;101202.18;;;0.62;100.00
64628;BME280;59036;50.960;0.314;2023-03-01T07:19:08;101201.71;;;-0.43;100.00
64628;BME280;59036;50.960;0.314;2023-03-01T07:21:35;101196.18;;;0.53;100.00
64628;BME280;59036;50.960;0.314;2023-03-01T07:24:02;101195.91;;;0.94;100.00
64628;BME280;59036;50.960;0.314;2023-03-01T07:26:30;101194.00;;;0.70;100.00
64628;BME280;59036;50.960;0.314;2023-03-01T07:28:59;101192.02;;;0.85;100.00
64628;BME280;59036;50.960;0.314;2023-03-01T07:31:26;101196.60;;;1.27;100.00
64628;BME280;59036;50.960;0.314;2023-03-01T07:33:53;101190.57;;;1.72;100.00
64628;BME280;59036;50.960;0.314;2023-03-01T07:36:21;101188.64;;;1.84;100.00
64628;BME280;59036;50.960;0.314;2023-03-01T07:38:48;101187.71;;;1.27;100.00
64628;BME280;59036;50.960;0.314;2023-03-01T07:41:16;101181.35;;;1.73;100.00
64628;BME280;59036;50.960;0.314;2023-03-01T07:43:43;101188.09;;;1.10;100.00
64628;BME280;59036;50.960;0.314;2023-03-01T07:46:11;101188.38;;;0.68;100.00
64628;BME280;59036;50.960;0.314;2023-03-01T07:48:39;101189.32;;;1.83;100.00
64628;BME280;59036;50.960;0.314;2023-03-01T07:51:07;101186.15;;;1.75;100.00
64628;BME280;59036;50.960;0.314;2023-03-01T07:53:35;101190.50;;;0.76;100.00
64628;BME280;59036;50.960;0.314;2023-03-01T07:56:03;101191.44;;;1.12;100.00
64628;BME280;59036;50.960;0.314;2023-03-01T07:58:33;101196.56;;;0.54;100.00
64628;BME280;59036;50.960;0.314;2023-03-01T08:01:01;101202.29;;;1.48;100.00
64628;BME280;59036;50.960;0.314;2023-03-01T08:03:29;101207.47;;;0.80;100.00
64628;BME280;59036;50.960;0.314;2023-03-01T08:05:59;101215.77;;;1.50;100.00
64628;BME280;59036;50.960;0.314;2023-03-01T08:08:26;101214.96;;;1.01;100.00
64628;BME280;59036;50.960;0.314;2023-03-01T08:10:56;101218.43;;;0.70;100.00
64628;BME280;59036;50.960;0.314;2023-03-01T08:13:24;101218.68;;;1.27;100.00
64628;BME280;59036;50.960;0.314;2023-03-01T08:15:52;101214.03;;;0.91;100.00
64628;BME280;59036;50.960;0.314;2023-03-01T08:18:20;101213.81;;;1.69;100.00
64628;BME280;59036;50.960;0.314;2023-03-01T08:20:48;101211.93;;;1.76;100.00
64628;BME280;59036;50.960;0.314;2023-03-01T08:23:15;101213.00;;;1.75;100.00
64628;BME280;59036;50.960;0.314;2023-03-01T08:25:48;101217.32;;;1.28;100.00
64628;BME280;59036;50.960;0.314;2023-03-01T08:28:16;101214.09;;;2.52;100.00
64628;BME280;59036;50.960;0.314;2023-03-01T08:30:43;101216.02;;;1.87;100.00
64628;BME280;59036;50.960;0.314;2023-03-01T08:33:10;101214.22;;;2.91;100.00
64628;BME280;59036;50.960;0.314;2023-03-01T08:35:38;101221.35;;;1.27;100.00
64628;BME280;59036;50.960;0.314;2023-03-01T08:38:05;101220.71;;;1.82;100.00
64628;BME280;59036;50.960;0.314;2023-03-01T08:40:32;101219.91;;;1.04;100.00
64628;BME280;59036;50.960;0.314;2023-03-01T08:42:59;101219.21;;;1.38;100.00
64628;BME280;59036;50.960;0.314;2023-03-01T08:45:32;101212.72;;;2.14;100.00
64628;BME280;59036;50.960;0.314;2023-03-01T08:47:59;101209.25;;;1.80;100.00
64628;BME280;59036;50.960;0.314;2023-03-01T08:50:26;101198.05;;;2.29;100.00
64628;BME280;59036;50.960;0.314;2023-03-01T08:53:03;101202.20;;;1.48;100.00
64628;BME280;59036;50.960;0.314;2023-03-01T08:55:40;101202.94;;;1.84;100.00
64628;BME280;59036;50.960;0.314;2023-03-01T08:58:18;101207.29;;;1.68;100.00
64628;BME280;59036;50.960;0.314;2023-03-01T09:00:45;101201.57;;;1.51;100.00
64628;BME280;59036;50.960;0.314;2023-03-01T09:03:12;101203.44;;;1.29;100.00
64628;BME280;59036;50.960;0.314;2023-03-01T09:05:39;101199.15;;;1.57;100.00
64628;BME280;59036;50.960;0.314;2023-03-01T09:08:06;101198.51;;;1.79;100.00
64628;BME280;59036;50.960;0.314;2023-03-01T09:10:33;101192.27;;;2.35;100.00
64628;BME280;59036;50.960;0.314;2023-03-01T09:13:03;101183.35;;;2.10;100.00
64628;BME280;59036;50.960;0.314;2023-03-01T09:15:30;101179.84;;;2.74;100.00
64628;BME280;59036;50.960;0.314;2023-03-01T09:17:58;101174.55;;;2.07;100.00
64628;BME280;59036;50.960;0.314;2023-03-01T09:20:25;101178.11;;;2.00;100.00
64628;BME280;59036;50.960;0.314;2023-03-01T09:22:52;101171.95;;;2.66;100.00
64628;BME280;59036;50.960;0.314;2023-03-01T09:25:20;101164.98;;;2.90;100.00
64628;BME280;59036;50.960;0.314;2023-03-01T09:27:47;101159.85;;;2.13;100.00
64628;BME280;59036;50.960;0.314;2023-03-01T09:30:15;101169.28;;;2.68;100.00
64628;BME280;59036;50.960;0.314;2023-03-01T09:32:48;101166.48;;;2.29;100.00
64628;BME280;59036;50.960;0.314;2023-03-01T09:35:15;101167.58;;;2.55;100.00
64628;BME280;59036;50.960;0.314;2023-03-01T09:37:42;101167.82;;;2.01;100.00
64628;BME280;59036;50.960;0.314;2023-03-01T09:40:14;101164.43;;;2.89;100.00
64628;BME280;59036;50.960;0.314;2023-03-01T09:42:54;101159.34;;;2.62;100.00
64628;BME280;59036;50.960;0.314;2023-03-01T09:45:27;101158.53;;;2.23;100.00
64628;BME280;59036;50.960;0.314;2023-03-01T09:47:56;101147.66;;;2.46;100.00
64628;BME280;59036;50.960;0.314;2023-03-01T09:50:26;101147.45;;;2.09;100.00
64628;BME280;59036;50.960;0.314;2023-03-01T09:53:00;101148.45;;;2.81;100.00
64628;BME280;59036;50.960;0.314;2023-03-01T09:55:32;101145.11;;;2.69;100.00
64628;BME280;59036;50.960;0.314;2023-03-01T09:58:06;101139.69;;;3.28;100.00
64628;BME280;59036;50.960;0.314;2023-03-01T10:00:43;101142.02;;;3.00;100.00
64628;BME280;59036;50.960;0.314;2023-03-01T10:03:14;101141.44;;;2.76;100.00
64628;BME280;59036;50.960;0.314;2023-03-01T10:05:49;101131.33;;;2.92;100.00
64628;BME280;59036;50.960;0.314;2023-03-01T10:08:28;101132.11;;;3.21;100.00
64628;BME280;59036;50.960;0.314;2023-03-01T10:10:56;101130.36;;;3.43;100.00
64628;BME280;59036;50.960;0.314;2023-03-01T10:13:26;101134.01;;;3.23;100.00
64628;BME280;59036;50.960;0.314;2023-03-01T10:15:57;101132.71;;;3.09;100.00
64628;BME280;59036;50.960;0.314;2023-03-01T10:18:27;101131.38;;;3.44;100.00
64628;BME280;59036;50.960;0.314;2023-03-01T10:20:58;101127.70;;;3.84;100.00
64628;BME280;59036;50.960;0.314;2023-03-01T10:23:27;101126.32;;;3.40;100.00
64628;BME280;59036;50.960;0.314;2023-03-01T10:26:05;101121.26;;;3.87;100.00
64628;BME280;59036;50.960;0.314;2023-03-01T10:28:44;101116.90;;;4.80;100.00
64628;BME280;59036;50.960;0.314;2023-03-01T10:31:20;101113.88;;;3.12;100.00
64628;BME280;59036;50.960;0.314;2023-03-01T10:33:48;101108.23;;;3.77;100.00
64628;BME280;59036;50.960;0.314;2023-03-01T10:36:15;101105.89;;;3.91;100.00
64628;BME280;59036;50.960;0.314;2023-03-01T10:38:53;101105.86;;;3.79;100.00
64628;BME280;59036;50.960;0.314;2023-03-01T10:41:21;101102.57;;;3.89;100.00
64628;BME280;59036;50.960;0.314;2023-03-01T10:43:50;101101.26;;;3.93;100.00
64628;BME280;59036;50.960;0.314;2023-03-01T10:46:28;101093.03;;;3.60;100.00
64628;BME280;59036;50.960;0.314;2023-03-01T10:49:28;101085.73;;;4.03;100.00
64628;BME280;59036;50.960;0.314;2023-03-01T10:51:55;101089.30;;;4.10;100.00
64628;BME280;59036;50.960;0.314;2023-03-01T10:54:26;101087.38;;;3.14;100.00
64628;BME280;59036;50.960;0.314;2023-03-01T10:56:57;101088.50;;;3.96;100.00
64628;BME280;59036;50.960;0.314;2023-03-01T10:59:27;101084.37;;;3.58;100.00
64628;BME280;59036;50.960;0.314;2023-03-01T11:02:15;101085.20;;;4.67;100.00
64628;BME280;59036;50.960;0.314;2023-03-01T11:04:58;101083.43;;;4.23;100.00
64628;BME280;59036;50.960;0.314;2023-03-01T11:07:26;101083.27;;;4.50;100.00
64628;BME280;59036;50.960;0.314;2023-03-01T11:09:53;101074.36;;;4.99;100.00
64628;BME280;59036;50.960;0.314;2023-03-01T11:12:20;101071.51;;;4.66;100.00
64628;BME280;59036;50.960;0.314;2023-03-01T11:14:49;101068.40;;;4.18;100.00
64628;BME280;59036;50.960;0.314;2023-03-01T11:17:23;101066.36;;;3.56;100.00
64628;BME280;59036;50.960;0.314;2023-03-01T11:20:25;101074.08;;;3.15;100.00
64628;BME280;59036;50.960;0.314;2023-03-01T11:22:56;101069.00;;;2.85;100.00
64628;BME280;59036;50.960;0.314;2023-03-01T11:25:27;101055.37;;;4.26;100.00
64628;BME280;59036;50.960;0.314;2023-03-01T11:27:57;101052.36;;;4.27;100.00
64628;BME280;59036;50.960;0.314;2023-03-01T11:30:30;101050.78;;;3.69;100.00
64628;BME280;59036;50.960;0.314;2023-03-01T11:33:10;101053.13;;;4.46;100.00
64628;BME280;59036;50.960;0.314;2023-03-01T11:35:47;101049.41;;;3.59;100.00
64628;BME280;59036;50.960;0.314;2023-03-01T11:38:21;101047.74;;;3.22;100.00
64628;BME280;59036;50.960;0.314;2023-03-01T11:40:52;101047.53;;;3.24;100.00
64628;BME280;59036;50.960;0.314;2023-03-01T11:43:28;101044.73;;;2.79;100.00
64628;BME280;59036;50.960;0.314;2023-03-01T11:46:11;101045.30;;;3.17;100.00
64628;BME280;59036;50.960;0.314;2023-03-01T11:48:53;101037.72;;;3.06;100.00
64628;BME280;59036;50.960;0.314;2023-03-01T11:51:29;101033.02;;;3.50;100.00
64628;BME280;59036;50.960;0.314;2023-03-01T11:54:09;101034.58;;;2.78;100.00
64628;BME280;59036;50.960;0.314;2023-03-01T11:56:45;101036.31;;;2.56;100.00
64628;BME280;59036;50.960;0.314;2023-03-01T11:59:27;101036.67;;;2.66;100.00
64628;BME280;59036;50.960;0.314;2023-03-01T12:02:15;101031.49;;;2.76;100.00
64628;BME280;59036;50.960;0.314;2023-03-01T12:05:01;101028.28;;;2.49;100.00
64628;BME280;59036;50.960;0.314;2023-03-01T12:07:38;101021.32;;;2.96;100.00
64628;BME280;59036;50.960;0.314;2023-03-01T12:10:21;101016.23;;;2.45;100.00
64628;BME280;59036;50.960;0.314;2023-03-01T12:15:42;101010.41;;;3.95;100.00
64628;BME280;59036;50.960;0.314;2023-03-01T12:18:36;101014.51;;;2.43;100.00
64628;BME280;59036;50.960;0.314;2023-03-01T12:21:15;101002.42;;;3.10;100.00
64628;BME280;59036;50.960;0.314;2023-03-01T12:23:58;101001.67;;;3.32;100.00
64628;BME280;59036;50.960;0.314;2023-03-01T12:26:30;100998.62;;;3.30;100.00
64628;BME280;59036;50.960;0.314;2023-03-01T12:29:14;101001.46;;;3.14;100.00
64628;BME280;59036;50.960;0.314;2023-03-01T12:32:57;100998.56;;;3.15;100.00
64628;BME280;59036;50.960;0.314;2023-03-01T12:35:42;100993.15;;;3.12;100.00
64628;BME280;59036;50.960;0.314;2023-03-01T12:38:29;100985.30;;;3.82;100.00
64628;BME280;59036;50.960;0.314;2023-03-01T12:41:10;100983.57;;;3.99;100.00
64628;BME280;59036;50.960;0.314;2023-03-01T12:43:49;100978.16;;;3.93;100.00
64628;BME280;59036;50.960;0.314;2023-03-01T12:46:27;100981.05;;;3.88;100.00
64628;BME280;59036;50.960;0.314;2023-03-01T12:49:02;100975.66;;;4.20;100.00
64628;BME280;59036;50.960;0.314;2023-03-01T12:51:33;100971.85;;;3.52;100.00
64628;BME280;59036;50.960;0.314;2023-03-01T12:54:10;100967.41;;;3.84;100.00
64628;BME280;59036;50.960;0.314;2023-03-01T12:56:39;100965.50;;;4.48;100.00
64628;BME280;59036;50.960;0.314;2023-03-01T12:59:13;100958.01;;;4.32;100.00
64628;BME280;59036;50.960;0.314;2023-03-01T13:01:51;100956.92;;;3.97;100.00
64628;BME280;59036;50.960;0.314;2023-03-01T13:04:28;100949.28;;;3.70;100.00
64628;BME280;59036;50.960;0.314;2023-03-01T13:07:13;100946.39;;;3.66;100.00